createdAt,value
2023-04-11T00:00:04.471Z,976.74
2023-04-11T00:01:04.473Z,976.76
2023-04-11T00:02:04.497Z,976.86
2023-04-11T00:03:04.893Z,976.88
2023-04-11T00:04:04.572Z,976.91
2023-04-11T00:05:04.566Z,976.92
2023-04-11T00:06:04.394Z,976.89
2023-04-11T00:07:04.453Z,976.96
2023-04-11T00:08:04.406Z,976.94
2023-04-11T00:09:04.370Z,976.91
2023-04-11T00:10:04.393Z,976.86
2023-04-11T00:11:04.386Z,976.88
2023-04-11T00:12:04.374Z,976.88
2023-04-11T00:13:04.337Z,976.85
2023-04-11T00:14:04.334Z,976.90
2023-04-11T00:15:04.313Z,976.88
2023-04-11T00:16:04.350Z,976.92
2023-04-11T00:17:04.271Z,976.86
2023-04-11T00:18:04.294Z,976.86
2023-04-11T00:19:04.278Z,976.80
2023-04-11T00:20:04.268Z,976.73
2023-04-11T00:21:04.288Z,976.62
2023-04-11T00:22:04.297Z,976.64
2023-04-11T00:23:04.200Z,976.61
2023-04-11T00:24:04.280Z,976.58
2023-04-11T00:25:04.192Z,976.56
2023-04-11T00:26:04.210Z,976.58
2023-04-11T00:27:04.169Z,976.62
2023-04-11T00:28:04.190Z,976.67
2023-04-11T00:29:04.147Z,976.70
2023-04-11T00:30:04.160Z,976.69
2023-04-11T00:31:04.122Z,976.67
2023-04-11T00:32:04.327Z,976.75
2023-04-11T00:33:04.157Z,976.67
2023-04-11T00:34:04.120Z,976.63
2023-04-11T00:35:04.085Z,976.66
2023-04-11T00:36:04.165Z,976.71
2023-04-11T00:37:04.133Z,976.72
2023-04-11T00:38:13.319Z,976.85
2023-04-11T00:39:04.022Z,976.91
2023-04-11T00:40:04.029Z,976.93
2023-04-11T00:41:04.773Z,977.02
2023-04-11T00:42:04.025Z,977.00
2023-04-11T00:43:03.984Z,977.00
2023-04-11T00:44:03.995Z,976.98
2023-04-11T00:45:04.043Z,976.91
2023-04-11T00:46:03.972Z,976.78
2023-04-11T00:47:04.003Z,976.75
2023-04-11T00:48:04.004Z,976.65
2023-04-11T00:49:03.952Z,976.66
2023-04-11T00:50:03.950Z,976.66
2023-04-11T00:51:03.886Z,976.69
2023-04-11T00:52:03.974Z,976.79
2023-04-11T00:53:04.665Z,976.77
2023-04-11T00:54:03.973Z,976.71
2023-04-11T00:55:03.839Z,976.70
2023-04-11T00:56:03.926Z,976.59
2023-04-11T00:57:03.819Z,976.57
2023-04-11T00:58:03.824Z,976.51
2023-04-11T00:59:03.854Z,976.51
2023-04-11T01:00:03.819Z,976.52
2023-04-11T01:01:03.828Z,976.56
2023-04-11T01:02:03.862Z,976.61
2023-04-11T01:03:03.842Z,976.69
2023-04-11T01:04:03.932Z,976.75
2023-04-11T01:05:03.732Z,976.73
2023-04-11T01:06:03.751Z,976.69
2023-04-11T01:07:03.702Z,976.78
2023-04-11T01:08:03.707Z,976.78
2023-04-11T01:09:03.696Z,976.82
2023-04-11T01:10:03.726Z,976.85
2023-04-11T01:11:03.675Z,976.89
2023-04-11T01:12:03.695Z,976.86
2023-04-11T01:13:03.660Z,976.83
2023-04-11T01:14:03.658Z,976.74
2023-04-11T01:15:03.623Z,976.66
2023-04-11T01:16:03.628Z,976.67
2023-04-11T01:17:03.721Z,976.58
2023-04-11T01:18:03.663Z,976.59
2023-04-11T01:19:03.578Z,976.55
2023-04-11T01:20:03.594Z,976.49
2023-04-11T01:21:03.558Z,976.46
2023-04-11T01:22:03.556Z,976.41
2023-04-11T01:23:03.529Z,976.32
2023-04-11T01:24:03.576Z,976.22
2023-04-11T01:25:03.518Z,976.24
2023-04-11T01:26:03.528Z,976.26
2023-04-11T01:27:03.478Z,976.28
2023-04-11T01:28:03.530Z,976.23
2023-04-11T01:29:03.469Z,976.24
2023-04-11T01:30:03.489Z,976.23
2023-04-11T01:31:03.511Z,976.23
2023-04-11T01:32:03.447Z,976.20
2023-04-11T01:33:03.525Z,976.12
2023-04-11T01:34:03.485Z,976.12
2023-04-11T01:35:03.392Z,976.09
2023-04-11T01:36:03.448Z,976.15
2023-04-11T01:37:03.442Z,976.14
2023-04-11T01:38:03.490Z,976.17
2023-04-11T01:39:03.342Z,976.13
2023-04-11T01:40:03.402Z,976.07
2023-04-11T01:41:03.336Z,976.10
2023-04-11T01:42:03.335Z,976.12
2023-04-11T01:43:03.346Z,976.19
2023-04-11T01:44:03.375Z,976.20
2023-04-11T01:45:03.300Z,976.16
2023-04-11T01:46:03.328Z,976.19
2023-04-11T01:47:03.247Z,976.22
2023-04-11T01:48:03.344Z,976.29
2023-04-11T01:49:03.412Z,976.32
2023-04-11T01:50:03.251Z,976.32
2023-04-11T01:51:03.248Z,976.37
2023-04-11T01:52:03.239Z,976.40
2023-04-11T01:53:03.190Z,976.43
2023-04-11T01:54:03.226Z,976.39
2023-04-11T01:55:03.207Z,976.36
2023-04-11T01:56:03.183Z,976.36
2023-04-11T01:57:03.148Z,976.28
2023-04-11T01:58:03.217Z,976.24
2023-04-11T01:59:03.111Z,976.16
2023-04-11T02:00:03.134Z,976.12
2023-04-11T02:01:03.186Z,976.07
2023-04-11T02:02:03.205Z,976.13
2023-04-11T02:03:03.147Z,976.18
2023-04-11T02:04:03.210Z,976.20
2023-04-11T02:05:03.067Z,976.19
2023-04-11T02:06:03.056Z,976.21
2023-04-11T02:07:03.028Z,976.29
2023-04-11T02:08:03.084Z,976.27
2023-04-11T02:09:03.724Z,976.28
2023-04-11T02:10:03.016Z,976.23
2023-04-11T02:11:02.975Z,976.21
2023-04-11T02:12:03.010Z,976.24
2023-04-11T02:13:03.022Z,976.30
2023-04-11T02:14:02.992Z,976.33
2023-04-11T02:15:03.184Z,976.39
2023-04-11T02:16:02.983Z,976.44
2023-04-11T02:17:02.912Z,976.41
2023-04-11T02:18:03.004Z,976.44
2023-04-11T02:19:02.905Z,976.42
2023-04-11T02:20:02.915Z,976.41
2023-04-11T02:21:02.902Z,976.36
2023-04-11T02:22:02.901Z,976.41
2023-04-11T02:23:02.841Z,976.46
2023-04-11T02:24:02.947Z,976.48
2023-04-11T02:25:02.833Z,976.46
2023-04-11T02:26:02.836Z,976.42
2023-04-11T02:27:02.813Z,976.36
2023-04-11T02:28:02.849Z,976.32
2023-04-11T02:29:02.772Z,976.32
2023-04-11T02:30:02.788Z,976.32
2023-04-11T02:31:02.856Z,976.32
2023-04-11T02:32:02.878Z,976.42
2023-04-11T02:33:02.765Z,976.40
2023-04-11T02:34:02.748Z,976.44
2023-04-11T02:35:02.722Z,976.44
2023-04-11T02:36:02.757Z,976.42
2023-04-11T02:37:02.707Z,976.41
2023-04-11T02:38:02.719Z,976.43
2023-04-11T02:39:02.664Z,976.47
2023-04-11T02:40:02.671Z,976.51
2023-04-11T02:41:02.674Z,976.49
2023-04-11T02:42:02.654Z,976.54
2023-04-11T02:43:02.629Z,976.55
2023-04-11T02:44:02.724Z,976.55
2023-04-11T02:45:02.599Z,976.48
2023-04-11T02:46:12.115Z,976.51
2023-04-11T02:47:03.717Z,976.54
2023-04-11T02:48:02.758Z,976.50
2023-04-11T02:49:02.577Z,976.48
2023-04-11T02:50:02.631Z,976.50
2023-04-11T02:51:02.553Z,976.52
2023-04-11T02:52:02.539Z,976.52
2023-04-11T02:53:02.527Z,976.55
2023-04-11T02:54:02.566Z,976.56
2023-04-11T02:55:02.496Z,976.57
2023-04-11T02:56:02.500Z,976.62
2023-04-11T02:57:02.469Z,976.60
2023-04-11T02:58:02.476Z,976.56
2023-04-11T02:59:02.448Z,976.59
2023-04-11T03:00:02.501Z,976.62
2023-04-11T03:01:02.460Z,976.55
2023-04-11T03:02:02.558Z,976.55
2023-04-11T03:03:02.570Z,976.58
2023-04-11T03:04:03.111Z,976.64
2023-04-11T03:05:02.424Z,976.65
2023-04-11T03:06:02.378Z,976.63
2023-04-11T03:07:02.376Z,976.63
2023-04-11T03:08:02.358Z,976.59
2023-04-11T03:09:02.372Z,976.61
2023-04-11T03:10:02.344Z,976.64
2023-04-11T03:11:02.318Z,976.68
2023-04-11T03:12:02.321Z,976.64
2023-04-11T03:13:02.306Z,976.67
2023-04-11T03:14:02.331Z,976.74
2023-04-11T03:15:02.259Z,976.72
2023-04-11T03:16:02.357Z,976.70
2023-04-11T03:17:02.243Z,976.70
2023-04-11T03:18:02.279Z,976.76
2023-04-11T03:19:02.301Z,976.77
2023-04-11T03:20:02.229Z,976.81
2023-04-11T03:21:02.212Z,976.80
2023-04-11T03:22:02.233Z,976.77
2023-04-11T03:23:02.239Z,976.73
2023-04-11T03:24:02.192Z,976.75
2023-04-11T03:25:02.150Z,976.74
2023-04-11T03:26:02.172Z,976.74
2023-04-11T03:27:02.138Z,976.68
2023-04-11T03:28:02.161Z,976.79
2023-04-11T03:29:02.137Z,976.71
2023-04-11T03:30:02.182Z,976.77
2023-04-11T03:31:02.126Z,976.77
2023-04-11T03:32:02.166Z,976.77
2023-04-11T03:33:02.157Z,976.83
2023-04-11T03:34:02.116Z,976.78
2023-04-11T03:35:02.044Z,976.79
2023-04-11T03:36:02.106Z,976.82
2023-04-11T03:37:02.026Z,976.75
2023-04-11T03:38:02.080Z,976.77
2023-04-11T03:39:02.011Z,976.86
2023-04-11T03:40:02.017Z,976.84
2023-04-11T03:41:02.099Z,976.88
2023-04-11T03:42:02.051Z,976.89
2023-04-11T03:43:04.672Z,976.83
2023-04-11T03:44:01.979Z,976.80
2023-04-11T03:45:01.977Z,976.88
2023-04-11T03:46:01.963Z,976.86
2023-04-11T03:47:01.983Z,976.85
2023-04-11T03:48:01.951Z,976.82
2023-04-11T03:49:01.950Z,976.80
2023-04-11T03:50:01.925Z,976.81
2023-04-11T03:51:01.867Z,976.74
2023-04-11T03:52:01.985Z,976.72
2023-04-11T03:53:01.826Z,976.76
2023-04-11T03:54:01.842Z,976.75
2023-04-11T03:55:01.845Z,976.83
2023-04-11T03:56:01.835Z,976.88
2023-04-11T03:57:01.854Z,976.84
2023-04-11T03:58:01.832Z,976.89
2023-04-11T03:59:01.765Z,976.92
2023-04-11T04:00:01.804Z,976.83
2023-04-11T04:01:01.762Z,976.88
2023-04-11T04:02:01.856Z,976.92
2023-04-11T04:03:01.934Z,976.87
2023-04-11T04:04:02.161Z,976.92
2023-04-11T04:05:01.759Z,976.89
2023-04-11T04:06:02.501Z,977.00
2023-04-11T04:07:01.704Z,976.98
2023-04-11T04:08:01.684Z,976.98
2023-04-11T04:09:01.647Z,977.00
2023-04-11T04:10:01.724Z,977.02
2023-04-11T04:11:01.653Z,977.08
2023-04-11T04:12:01.669Z,977.08
2023-04-11T04:13:01.644Z,977.03
2023-04-11T04:14:01.671Z,977.05
2023-04-11T04:15:01.578Z,977.07
2023-04-11T04:16:03.443Z,977.08
2023-04-11T04:17:01.574Z,977.10
2023-04-11T04:18:01.606Z,977.03
2023-04-11T04:19:01.567Z,977.08
2023-04-11T04:20:01.584Z,977.10
2023-04-11T04:21:01.534Z,977.06
2023-04-11T04:22:01.526Z,977.09
2023-04-11T04:23:01.516Z,977.06
2023-04-11T04:24:01.474Z,977.14
2023-04-11T04:25:01.490Z,977.11
2023-04-11T04:26:01.525Z,977.11
2023-04-11T04:27:01.455Z,977.16
2023-04-11T04:28:01.428Z,977.15
2023-04-11T04:29:01.453Z,977.23
2023-04-11T04:30:03.419Z,977.24
2023-04-11T04:31:01.429Z,977.24
2023-04-11T04:32:01.435Z,977.20
2023-04-11T04:33:01.398Z,977.22
2023-04-11T04:34:01.449Z,977.24
2023-04-11T04:35:01.385Z,977.23
2023-04-11T04:36:01.423Z,977.28
2023-04-11T04:37:01.342Z,977.13
2023-04-11T04:38:02.162Z,977.21
2023-04-11T04:39:01.522Z,977.27
2023-04-11T04:40:01.303Z,977.26
2023-04-11T04:41:01.316Z,977.21
2023-04-11T04:42:01.255Z,977.24
2023-04-11T04:43:01.330Z,977.28
2023-04-11T04:44:01.243Z,977.27
2023-04-11T04:45:01.420Z,977.35
2023-04-11T04:46:01.342Z,977.34
2023-04-11T04:47:01.278Z,977.24
2023-04-11T04:48:01.198Z,977.25
2023-04-11T04:49:02.291Z,977.28
2023-04-11T04:50:01.536Z,977.29
2023-04-11T04:51:01.199Z,977.28
2023-04-11T04:52:01.150Z,977.29
2023-04-11T04:53:01.237Z,977.28
2023-04-11T04:54:01.137Z,977.32
2023-04-11T04:55:01.229Z,977.31
2023-04-11T04:56:01.122Z,977.30
2023-04-11T04:57:01.208Z,977.33
2023-04-11T04:58:01.082Z,977.38
2023-04-11T04:59:01.114Z,977.36
2023-04-11T05:00:01.067Z,977.36
2023-04-11T05:01:01.163Z,977.39
2023-04-11T05:02:01.154Z,977.39
2023-04-11T05:03:01.269Z,977.36
2023-04-11T05:04:01.706Z,977.38
2023-04-11T05:05:01.048Z,977.42
2023-04-11T05:06:01.007Z,977.36
2023-04-11T05:07:01.249Z,977.34
2023-04-11T05:08:00.984Z,977.35
2023-04-11T05:09:01.020Z,977.33
2023-04-11T05:10:00.954Z,977.31
2023-04-11T05:11:00.970Z,977.31
2023-04-11T05:12:00.924Z,977.38
2023-04-11T05:13:00.999Z,977.38
2023-04-11T05:14:00.913Z,977.37
2023-04-11T05:15:00.916Z,977.37
2023-04-11T05:16:00.884Z,977.38
2023-04-11T05:17:00.969Z,977.37
2023-04-11T05:18:00.896Z,977.31
2023-04-11T05:19:01.656Z,977.29
2023-04-11T05:20:00.909Z,977.24
2023-04-11T05:21:00.833Z,977.29
2023-04-11T05:22:00.842Z,977.34
2023-04-11T05:23:00.936Z,977.32
2023-04-11T05:24:00.801Z,977.37
2023-04-11T05:25:00.799Z,977.41
2023-04-11T05:26:00.753Z,977.37
2023-04-11T05:27:00.759Z,977.41
2023-04-11T05:28:00.768Z,977.44
2023-04-11T05:29:00.748Z,977.44
2023-04-11T05:30:00.713Z,977.34
2023-04-11T05:31:00.749Z,977.33
2023-04-11T05:32:00.700Z,977.31
2023-04-11T05:33:00.727Z,977.30
2023-04-11T05:34:00.670Z,977.38
2023-04-11T05:35:00.671Z,977.34
2023-04-11T05:36:00.746Z,977.37
2023-04-11T05:37:00.659Z,977.26
2023-04-11T05:38:00.641Z,977.26
2023-04-11T05:39:00.633Z,977.35
2023-04-11T05:40:00.950Z,977.38
2023-04-11T05:41:00.652Z,977.44
2023-04-11T05:42:00.605Z,977.36
2023-04-11T05:43:00.623Z,977.40
2023-04-11T05:44:00.558Z,977.38
2023-04-11T05:45:00.579Z,977.37
2023-04-11T05:46:00.557Z,977.41
2023-04-11T05:47:00.598Z,977.39
2023-04-11T05:48:00.583Z,977.41
2023-04-11T05:49:00.535Z,977.44
2023-04-11T05:50:00.521Z,977.34
2023-04-11T05:51:00.498Z,977.40
2023-04-11T05:52:00.458Z,977.41
2023-04-11T05:53:00.489Z,977.47
2023-04-11T05:54:00.463Z,977.45
2023-04-11T05:55:00.527Z,977.42
2023-04-11T05:56:00.410Z,977.52
2023-04-11T05:57:00.437Z,977.53
2023-04-11T05:58:00.395Z,977.50
2023-04-11T05:59:00.560Z,977.46
2023-04-11T06:00:01.237Z,977.57
2023-04-11T06:01:00.408Z,977.56
2023-04-11T06:02:00.403Z,977.61
2023-04-11T06:03:00.654Z,977.64
2023-04-11T06:04:00.683Z,977.58
2023-04-11T06:05:00.367Z,977.60
2023-04-11T06:06:00.312Z,977.58
2023-04-11T06:07:00.387Z,977.62
2023-04-11T06:08:00.284Z,977.61
2023-04-11T06:09:00.643Z,977.68
2023-04-11T06:10:00.252Z,977.60
2023-04-11T06:11:00.263Z,977.62
2023-04-11T06:12:00.278Z,977.67
2023-04-11T06:13:00.961Z,977.66
2023-04-11T06:14:00.211Z,977.67
2023-04-11T06:15:00.212Z,977.69
2023-04-11T06:16:00.262Z,977.72
2023-04-11T06:17:00.210Z,977.68
2023-04-11T06:18:00.214Z,977.72
2023-04-11T06:19:00.237Z,977.69
2023-04-11T06:20:00.901Z,977.65
2023-04-11T06:21:00.173Z,977.69
2023-04-11T06:22:00.147Z,977.69
2023-04-11T06:23:00.135Z,977.72
2023-04-11T06:24:00.139Z,977.80
2023-04-11T06:25:00.247Z,977.73
2023-04-11T06:26:00.162Z,977.89
2023-04-11T06:27:00.081Z,977.78
2023-04-11T06:28:00.047Z,977.82
2023-04-11T06:29:00.160Z,977.94
2023-04-11T06:30:00.087Z,977.81
2023-04-11T06:31:00.150Z,977.94
2023-04-11T06:32:00.007Z,977.85
2023-04-11T06:33:00.117Z,977.87
2023-04-11T06:33:59.998Z,977.83
2023-04-11T06:35:00.097Z,977.85
2023-04-11T06:36:00.079Z,977.86
2023-04-11T06:37:00.030Z,977.99
2023-04-11T06:38:00.222Z,977.90
2023-04-11T06:38:59.959Z,977.85
2023-04-11T06:39:59.928Z,977.86
2023-04-11T06:40:59.986Z,977.81
2023-04-11T06:41:59.896Z,977.80
2023-04-11T06:42:59.942Z,977.83
2023-04-11T06:43:59.955Z,977.85
2023-04-11T06:44:59.950Z,977.86
2023-04-11T06:45:59.876Z,977.93
2023-04-11T06:46:59.999Z,977.91
2023-04-11T06:47:59.929Z,977.89
2023-04-11T06:48:59.882Z,977.96
2023-04-11T06:49:59.841Z,977.93
2023-04-11T06:50:59.863Z,977.94
2023-04-11T06:51:59.788Z,977.93
2023-04-11T06:52:59.817Z,978.00
2023-04-11T06:53:59.813Z,977.92
2023-04-11T06:54:59.810Z,978.02
2023-04-11T06:55:59.739Z,978.00
2023-04-11T06:56:59.880Z,978.05
2023-04-11T06:57:59.723Z,978.12
2023-04-11T06:58:59.727Z,978.10
2023-04-11T06:59:59.695Z,978.15
2023-04-11T07:00:59.801Z,978.17
2023-04-11T07:02:00.093Z,978.18
2023-04-11T07:02:59.969Z,978.17
2023-04-11T07:03:59.967Z,978.20
2023-04-11T07:04:59.744Z,978.18
2023-04-11T07:05:59.627Z,978.18
2023-04-11T07:06:59.681Z,978.18
2023-04-11T07:07:59.599Z,978.25
2023-04-11T07:08:59.642Z,978.22
2023-04-11T07:09:59.585Z,978.21
2023-04-11T07:10:59.682Z,978.17
2023-04-11T07:11:59.571Z,978.29
2023-04-11T07:12:59.577Z,978.26
2023-04-11T07:13:59.599Z,978.31
2023-04-11T07:14:59.572Z,978.24
2023-04-11T07:15:59.542Z,978.36
2023-04-11T07:16:59.520Z,978.36
2023-04-11T07:17:59.635Z,978.35
2023-04-11T07:18:59.494Z,978.31
2023-04-11T07:19:59.473Z,978.31
2023-04-11T07:20:59.484Z,978.31
2023-04-11T07:21:59.487Z,978.33
2023-04-11T07:22:59.499Z,978.32
2023-04-11T07:23:59.429Z,978.32
2023-04-11T07:24:59.454Z,978.34
2023-04-11T07:25:59.394Z,978.35
2023-04-11T07:26:59.391Z,978.38
2023-04-11T07:27:59.364Z,978.25
2023-04-11T07:28:59.389Z,978.44
2023-04-11T07:29:59.348Z,978.40
2023-04-11T07:30:59.405Z,978.39
2023-04-11T07:31:59.345Z,978.48
2023-04-11T07:32:59.366Z,978.45
2023-04-11T07:33:59.305Z,978.52
2023-04-11T07:34:59.482Z,978.65
2023-04-11T07:35:59.356Z,978.57
2023-04-11T07:36:59.307Z,978.52
2023-04-11T07:37:59.255Z,978.55
2023-04-11T07:38:59.263Z,978.56
2023-04-11T07:39:59.242Z,978.55
2023-04-11T07:40:59.286Z,978.56
2023-04-11T07:41:59.209Z,978.57
2023-04-11T07:42:59.227Z,978.63
2023-04-11T07:43:59.295Z,978.58
2023-04-11T07:44:59.196Z,978.60
2023-04-11T07:45:59.177Z,978.65
2023-04-11T07:46:59.196Z,978.63
2023-04-11T07:47:59.192Z,978.72
2023-04-11T07:48:59.211Z,978.70
2023-04-11T07:49:59.110Z,978.70
2023-04-11T07:50:59.154Z,978.70
2023-04-11T07:51:59.143Z,978.74
2023-04-11T07:52:59.117Z,978.64
2023-04-11T07:53:59.078Z,978.72
2023-04-11T07:54:59.074Z,978.70
2023-04-11T07:55:59.052Z,978.74
2023-04-11T07:56:59.120Z,978.75
2023-04-11T07:57:59.012Z,978.78
2023-04-11T07:58:59.029Z,978.69
2023-04-11T07:59:59.035Z,978.76
2023-04-11T08:00:59.061Z,978.79
2023-04-11T08:01:59.062Z,978.88
2023-04-11T08:03:00.062Z,978.81
2023-04-11T08:03:59.253Z,978.79
2023-04-11T08:04:59.059Z,978.78
2023-04-11T08:05:59.059Z,978.79
2023-04-11T08:06:58.943Z,978.76
2023-04-11T08:07:58.928Z,978.77
2023-04-11T08:08:58.954Z,978.75
2023-04-11T08:09:58.956Z,978.75
2023-04-11T08:10:58.893Z,978.75
2023-04-11T08:11:58.883Z,978.74
2023-04-11T08:12:58.884Z,978.72
2023-04-11T08:13:59.141Z,978.77
2023-04-11T08:14:58.866Z,978.71
2023-04-11T08:15:58.848Z,978.75
2023-04-11T08:16:58.936Z,978.76
2023-04-11T08:17:58.840Z,978.73
2023-04-11T08:18:58.832Z,978.76
2023-04-11T08:20:01.878Z,978.79
2023-04-11T08:20:58.820Z,978.80
2023-04-11T08:21:58.749Z,978.77
2023-04-11T08:22:58.764Z,978.81
2023-04-11T08:23:58.891Z,978.78
2023-04-11T08:24:58.758Z,978.78
2023-04-11T08:25:58.907Z,978.90
2023-04-11T08:26:58.708Z,978.83
2023-04-11T08:27:58.680Z,978.83
2023-04-11T08:28:58.705Z,978.88
2023-04-11T08:29:58.702Z,978.80
2023-04-11T08:30:58.776Z,978.83
2023-04-11T08:31:58.800Z,978.85
2023-04-11T08:32:58.708Z,978.91
2023-04-11T08:34:00.820Z,978.88
2023-04-11T08:34:58.743Z,978.89
2023-04-11T08:35:58.627Z,978.91
2023-04-11T08:36:58.743Z,978.88
2023-04-11T08:37:58.718Z,978.92
2023-04-11T08:38:58.641Z,978.93
2023-04-11T08:39:58.571Z,979.00
2023-04-11T08:40:58.682Z,979.02
2023-04-11T08:41:58.607Z,979.08
2023-04-11T08:42:58.552Z,978.97
2023-04-11T08:43:58.765Z,979.05
2023-04-11T08:44:58.492Z,979.04
2023-04-11T08:45:58.550Z,979.03
2023-04-11T08:46:58.530Z,979.05
2023-04-11T08:47:58.596Z,978.97
2023-04-11T08:48:58.484Z,979.07
2023-04-11T08:49:58.547Z,979.10
2023-04-11T08:50:58.489Z,979.06
2023-04-11T08:51:58.484Z,979.03
2023-04-11T08:52:58.691Z,979.01
2023-04-11T08:53:58.623Z,978.97
2023-04-11T08:54:58.387Z,979.05
2023-04-11T08:55:58.432Z,979.08
2023-04-11T08:56:58.362Z,979.03
2023-04-11T08:57:58.463Z,979.07
2023-04-11T08:58:58.368Z,979.08
2023-04-11T08:59:58.359Z,979.08
2023-04-11T09:00:58.389Z,979.09
2023-04-11T09:01:58.565Z,979.07
2023-04-11T09:02:58.506Z,979.00
2023-04-11T09:03:59.446Z,979.06
2023-04-11T09:04:58.318Z,979.06
2023-04-11T09:05:58.363Z,979.11
2023-04-11T09:07:00.449Z,979.09
2023-04-11T09:07:58.283Z,979.12
2023-04-11T09:08:58.224Z,979.16
2023-04-11T09:09:58.225Z,979.18
2023-04-11T09:10:58.217Z,979.17
2023-04-11T09:11:58.217Z,979.20
2023-04-11T09:12:58.187Z,979.15
2023-04-11T09:13:58.175Z,979.17
2023-04-11T09:14:58.217Z,979.19
2023-04-11T09:15:58.192Z,979.19
2023-04-11T09:16:58.133Z,979.27
2023-04-11T09:18:00.650Z,979.31
2023-04-11T09:18:58.341Z,979.26
2023-04-11T09:19:58.130Z,979.29
2023-04-11T09:20:58.098Z,979.25
2023-04-11T09:21:58.108Z,979.31
2023-04-11T09:22:58.101Z,979.33
2023-04-11T09:23:58.209Z,979.24
2023-04-11T09:24:58.040Z,979.25
2023-04-11T09:25:58.102Z,979.15
2023-04-11T09:26:58.056Z,979.27
2023-04-11T09:27:58.046Z,979.33
2023-04-11T09:28:58.327Z,979.25
2023-04-11T09:29:58.004Z,979.27
2023-04-11T09:30:58.102Z,979.24
2023-04-11T09:31:57.996Z,979.18
2023-04-11T09:32:58.000Z,979.23
2023-04-11T09:33:58.226Z,979.27
2023-04-11T09:34:57.987Z,979.21
2023-04-11T09:35:58.397Z,979.27
2023-04-11T09:36:57.992Z,979.24
2023-04-11T09:37:57.943Z,979.27
2023-04-11T09:38:57.891Z,979.20
2023-04-11T09:39:58.015Z,979.27
2023-04-11T09:40:57.919Z,979.30
2023-04-11T09:41:57.973Z,979.19
2023-04-11T09:42:57.864Z,979.18
2023-04-11T09:43:57.938Z,979.19
2023-04-11T09:44:57.825Z,979.18
2023-04-11T09:45:57.868Z,979.33
2023-04-11T09:46:57.955Z,979.23
2023-04-11T09:47:57.890Z,979.14
2023-04-11T09:48:57.835Z,979.20
2023-04-11T09:49:57.886Z,979.27
2023-04-11T09:50:58.838Z,979.28
2023-04-11T09:51:57.803Z,979.12
2023-04-11T09:52:59.284Z,979.18
2023-04-11T09:53:58.254Z,979.18
2023-04-11T09:54:57.782Z,979.27
2023-04-11T09:55:57.846Z,979.43
2023-04-11T09:56:57.747Z,979.27
2023-04-11T09:57:57.724Z,979.40
2023-04-11T09:58:58.032Z,979.16
2023-04-11T09:59:57.785Z,979.15
2023-04-11T10:00:57.734Z,979.30
2023-04-11T10:01:57.759Z,979.18
2023-04-11T10:02:57.998Z,979.17
2023-04-11T10:03:58.348Z,979.17
2023-04-11T10:04:58.535Z,979.20
2023-04-11T10:05:57.631Z,979.24
2023-04-11T10:06:57.689Z,979.27
2023-04-11T10:07:57.734Z,979.26
2023-04-11T10:08:58.032Z,979.27
2023-04-11T10:09:57.628Z,979.34
2023-04-11T10:10:57.623Z,979.22
2023-04-11T10:11:57.541Z,979.23
2023-04-11T10:12:57.562Z,979.24
2023-04-11T10:13:57.833Z,979.27
2023-04-11T10:14:57.472Z,979.20
2023-04-11T10:15:57.708Z,979.25
2023-04-11T10:16:57.616Z,979.20
2023-04-11T10:17:57.552Z,979.20
2023-04-11T10:18:57.458Z,979.14
2023-04-11T10:19:57.526Z,979.08
2023-04-11T10:20:57.411Z,979.19
2023-04-11T10:21:57.399Z,979.28
2023-04-11T10:22:57.384Z,979.28
2023-04-11T10:23:57.743Z,979.36
2023-04-11T10:24:57.386Z,979.35
2023-04-11T10:25:57.434Z,979.44
2023-04-11T10:26:57.323Z,979.36
2023-04-11T10:27:57.351Z,979.36
2023-04-11T10:28:57.301Z,979.32
2023-04-11T10:29:57.350Z,979.27
2023-04-11T10:30:57.325Z,979.32
2023-04-11T10:31:57.422Z,979.31
2023-04-11T10:32:57.272Z,979.37
2023-04-11T10:33:57.690Z,979.33
2023-04-11T10:34:57.653Z,979.30
2023-04-11T10:35:57.278Z,979.34
2023-04-11T10:36:57.226Z,979.35
2023-04-11T10:37:57.293Z,979.40
2023-04-11T10:38:57.259Z,979.29
2023-04-11T10:39:57.299Z,979.33
2023-04-11T10:40:57.198Z,979.41
2023-04-11T10:41:57.198Z,979.42
2023-04-11T10:42:57.166Z,979.40
2023-04-11T10:43:57.356Z,979.38
2023-04-11T10:44:57.114Z,979.48
2023-04-11T10:45:57.134Z,979.46
2023-04-11T10:46:57.172Z,979.50
2023-04-11T10:47:57.262Z,979.49
2023-04-11T10:48:57.089Z,979.35
2023-04-11T10:49:57.201Z,979.37
2023-04-11T10:50:57.062Z,979.46
2023-04-11T10:51:57.231Z,979.34
2023-04-11T10:52:57.025Z,979.34
2023-04-11T10:53:57.046Z,979.34
2023-04-11T10:54:57.030Z,979.35
2023-04-11T10:55:57.036Z,979.31
2023-04-11T10:56:57.021Z,979.36
2023-04-11T10:57:57.179Z,979.44
2023-04-11T10:58:57.031Z,979.35
2023-04-11T10:59:57.009Z,979.33
2023-04-11T11:00:57.070Z,979.22
2023-04-11T11:01:57.114Z,979.37
2023-04-11T11:02:57.062Z,979.37
2023-04-11T11:03:57.187Z,979.33
2023-04-11T11:04:56.980Z,979.38
2023-04-11T11:05:56.960Z,979.31
2023-04-11T11:06:57.491Z,979.18
2023-04-11T11:07:56.871Z,979.23
2023-04-11T11:08:56.839Z,979.18
2023-04-11T11:09:56.894Z,979.20
2023-04-11T11:10:56.854Z,979.22
2023-04-11T11:11:56.880Z,979.36
2023-04-11T11:12:56.791Z,979.32
2023-04-11T11:13:57.044Z,979.29
2023-04-11T11:14:56.783Z,979.28
2023-04-11T11:15:56.812Z,979.27
2023-04-11T11:16:56.835Z,979.22
2023-04-11T11:17:56.837Z,979.26
2023-04-11T11:18:56.767Z,979.24
2023-04-11T11:19:56.746Z,979.36
2023-04-11T11:20:56.795Z,979.29
2023-04-11T11:21:56.812Z,979.25
2023-04-11T11:22:56.757Z,979.28
2023-04-11T11:23:57.087Z,979.24
2023-04-11T11:24:56.648Z,979.24
2023-04-11T11:25:56.719Z,979.25
2023-04-11T11:26:56.932Z,979.20
2023-04-11T11:27:56.653Z,979.18
2023-04-11T11:28:57.250Z,979.24
2023-04-11T11:29:56.658Z,979.10
2023-04-11T11:30:56.654Z,979.10
2023-04-11T11:31:56.659Z,979.36
2023-04-11T11:32:56.902Z,979.28
2023-04-11T11:34:04.773Z,979.27
2023-04-11T11:34:58.020Z,979.25
2023-04-11T11:35:56.777Z,979.28
2023-04-11T11:36:56.595Z,979.09
2023-04-11T11:37:56.522Z,979.27
2023-04-11T11:38:56.815Z,979.36
2023-04-11T11:39:56.501Z,979.37
2023-04-11T11:40:56.579Z,979.47
2023-04-11T11:41:56.603Z,979.39
2023-04-11T11:42:56.458Z,979.50
2023-04-11T11:43:56.570Z,979.49
2023-04-11T11:44:56.411Z,979.51
2023-04-11T11:45:56.469Z,979.43
2023-04-11T11:46:56.388Z,979.49
2023-04-11T11:47:56.813Z,979.35
2023-04-11T11:48:56.533Z,979.53
2023-04-11T11:49:56.714Z,979.46
2023-04-11T11:50:56.382Z,979.39
2023-04-11T11:51:56.378Z,979.36
2023-04-11T11:53:03.907Z,979.39
2023-04-11T11:54:03.958Z,979.37
2023-04-11T11:55:04.311Z,979.25
2023-04-11T11:55:56.416Z,979.27
2023-04-11T11:56:56.348Z,979.43
2023-04-11T11:57:56.463Z,979.35
2023-04-11T11:58:57.080Z,979.31
2023-04-11T11:59:56.437Z,979.40
2023-04-11T12:00:56.278Z,979.31
2023-04-11T12:01:56.353Z,979.31
2023-04-11T12:02:56.414Z,979.32
2023-04-11T12:03:56.455Z,979.32
2023-04-11T12:04:56.429Z,979.37
2023-04-11T12:05:56.249Z,979.43
2023-04-11T12:06:56.222Z,979.37
2023-04-11T12:07:56.271Z,979.43
2023-04-11T12:08:56.146Z,979.54
2023-04-11T12:09:56.207Z,979.47
2023-04-11T12:10:56.138Z,979.48
2023-04-11T12:11:56.425Z,979.52
2023-04-11T12:12:56.114Z,979.45
2023-04-11T12:13:56.419Z,979.49
2023-04-11T12:14:56.090Z,979.46
2023-04-11T12:15:56.180Z,979.54
2023-04-11T12:16:56.083Z,979.59
2023-04-11T12:17:56.128Z,979.51
2023-04-11T12:18:56.031Z,979.59
2023-04-11T12:19:56.197Z,979.53
2023-04-11T12:20:56.152Z,979.62
2023-04-11T12:21:56.025Z,979.59
2023-04-11T12:22:56.008Z,979.57
2023-04-11T12:23:56.439Z,979.68
2023-04-11T12:24:55.975Z,979.71
2023-04-11T12:25:55.985Z,979.72
2023-04-11T12:27:06.129Z,979.68
2023-04-11T12:27:56.972Z,979.73